sensor_id;sensor_type;location;lat;lon;timestamp;pressure;altitude;pressure_sealevel;temperature;humidity
75794;BME280;64418;47.536;19.074;2022-12-07T00:01:17;100258.44;;;1.84;90.64
75794;BME280;64418;47.536;19.074;2022-12-07T00:04:04;100253.69;;;1.78;90.63
75794;BME280;64418;47.536;19.074;2022-12-07T00:06:52;100258.91;;;1.62;91.20
75794;BME280;64418;47.536;19.074;2022-12-07T00:09:38;100248.38;;;1.43;91.72
75794;BME280;64418;47.536;19.074;2022-12-07T00:12:24;100240.87;;;1.29;92.36
75794;BME280;64418;47.536;19.074;2022-12-07T00:15:10;100235.38;;;1.13;93.05
75794;BME280;64418;47.536;19.074;2022-12-07T00:17:56;100237.94;;;1.05;93.60
75794;BME280;64418;47.536;19.074;2022-12-07T00:20:41;100232.66;;;0.95;94.11
75794;BME280;64418;47.536;19.074;2022-12-07T00:23:29;100233.56;;;0.86;94.67
75794;BME280;64418;47.536;19.074;2022-12-07T00:26:17;100223.44;;;0.89;94.83
75794;BME280;64418;47.536;19.074;2022-12-07T00:29:05;100223.72;;;0.86;94.98
75794;BME280;64418;47.536;19.074;2022-12-07T00:31:51;100226.78;;;0.91;94.99
75794;BME280;64418;47.536;19.074;2022-12-07T00:34:37;100224.00;;;0.83;95.31
75794;BME280;64418;47.536;19.074;2022-12-07T00:37:23;100216.37;;;0.98;95.08
75794;BME280;64418;47.536;19.074;2022-12-07T00:40:11;100214.03;;;1.13;94.97
75794;BME280;64418;47.536;19.074;2022-12-07T00:42:57;100210.66;;;1.11;94.94
75794;BME280;64418;47.536;19.074;2022-12-07T00:45:43;100210.66;;;1.11;94.97
75794;BME280;64418;47.536;19.074;2022-12-07T00:48:29;100209.28;;;1.07;95.11
75794;BME280;64418;47.536;19.074;2022-12-07T00:51:16;100216.31;;;1.08;95.07
75794;BME280;64418;47.536;19.074;2022-12-07T00:54:03;100214.34;;;1.27;94.58
75794;BME280;64418;47.536;19.074;2022-12-07T00:56:50;100215.03;;;1.29;94.42
75794;BME280;64418;47.536;19.074;2022-12-07T00:59:36;100214.72;;;1.32;94.12
75794;BME280;64418;47.536;19.074;2022-12-07T01:02:22;100208.03;;;1.28;94.14
75794;BME280;64418;47.536;19.074;2022-12-07T01:05:08;100208.09;;;1.19;94.23
75794;BME280;64418;47.536;19.074;2022-12-07T01:07:54;100201.72;;;1.02;94.66
75794;BME280;64418;47.536;19.074;2022-12-07T01:10:40;100203.31;;;0.95;95.21
75794;BME280;64418;47.536;19.074;2022-12-07T01:13:27;100197.34;;;0.83;95.65
75794;BME280;64418;47.536;19.074;2022-12-07T01:16:15;100197.47;;;0.64;96.17
75794;BME280;64418;47.536;19.074;2022-12-07T01:19:02;100203.37;;;0.58;96.60
75794;BME280;64418;47.536;19.074;2022-12-07T01:21:48;100208.16;;;0.55;96.93
75794;BME280;64418;47.536;19.074;2022-12-07T01:24:34;100210.69;;;0.56;97.06
75794;BME280;64418;47.536;19.074;2022-12-07T01:27:19;100212.34;;;0.57;97.25
75794;BME280;64418;47.536;19.074;2022-12-07T01:30:09;100213.00;;;0.69;97.37
75794;BME280;64418;47.536;19.074;2022-12-07T01:32:55;100205.94;;;0.77;97.36
75794;BME280;64418;47.536;19.074;2022-12-07T01:35:41;100199.47;;;0.80;97.38
75794;BME280;64418;47.536;19.074;2022-12-07T01:38:28;100197.06;;;0.86;97.15
75794;BME280;64418;47.536;19.074;2022-12-07T01:41:16;100206.87;;;0.86;97.08
75794;BME280;64418;47.536;19.074;2022-12-07T01:44:20;100204.97;;;0.78;97.29
75794;BME280;64418;47.536;19.074;2022-12-07T01:47:07;100198.59;;;0.89;96.76
75794;BME280;64418;47.536;19.074;2022-12-07T01:49:53;100201.03;;;0.82;96.92
75794;BME280;64418;47.536;19.074;2022-12-07T01:52:40;100195.19;;;0.96;96.72
75794;BME280;64418;47.536;19.074;2022-12-07T01:55:27;100200.31;;;1.08;96.56
75794;BME280;64418;47.536;19.074;2022-12-07T01:58:14;100202.44;;;1.22;96.10
75794;BME280;64418;47.536;19.074;2022-12-07T02:01:00;100193.84;;;1.28;95.84
75794;BME280;64418;47.536;19.074;2022-12-07T02:03:48;100188.75;;;1.34;95.30
75794;BME280;64418;47.536;19.074;2022-12-07T02:06:35;100185.00;;;1.45;94.88
75794;BME280;64418;47.536;19.074;2022-12-07T02:09:23;100188.94;;;1.59;94.30
75794;BME280;64418;47.536;19.074;2022-12-07T02:12:08;100181.84;;;1.67;93.73
75794;BME280;64418;47.536;19.074;2022-12-07T02:14:54;100188.56;;;1.71;93.25
75794;BME280;64418;47.536;19.074;2022-12-07T02:17:45;100184.91;;;1.72;93.05
75794;BME280;64418;47.536;19.074;2022-12-07T02:20:39;100181.59;;;1.78;92.67
75794;BME280;64418;47.536;19.074;2022-12-07T02:23:41;100187.66;;;1.80;92.44
75794;BME280;64418;47.536;19.074;2022-12-07T02:26:55;100183.97;;;1.81;92.23
75794;BME280;64418;47.536;19.074;2022-12-07T02:29:54;100183.69;;;1.84;92.09
75794;BME280;64418;47.536;19.074;2022-12-07T02:32:51;100181.66;;;1.86;91.89
75794;BME280;64418;47.536;19.074;2022-12-07T02:35:42;100177.62;;;1.82;91.76
75794;BME280;64418;47.536;19.074;2022-12-07T02:38:37;100181.66;;;1.86;91.75
75794;BME280;64418;47.536;19.074;2022-12-07T02:41:27;100185.19;;;1.87;91.62
75794;BME280;64418;47.536;19.074;2022-12-07T02:44:16;100187.84;;;1.87;91.69
75794;BME280;64418;47.536;19.074;2022-12-07T02:47:07;100169.94;;;1.79;91.70
75794;BME280;64418;47.536;19.074;2022-12-07T02:50:02;100174.66;;;1.85;91.84
75794;BME280;64418;47.536;19.074;2022-12-07T02:52:49;100186.16;;;1.86;91.98
75794;BME280;64418;47.536;19.074;2022-12-07T02:55:38;100175.03;;;1.90;91.75
75794;BME280;64418;47.536;19.074;2022-12-07T02:58:34;100186.09;;;1.96;91.71
75794;BME280;64418;47.536;19.074;2022-12-07T03:01:29;100175.63;;;2.02;91.61
75794;BME280;64418;47.536;19.074;2022-12-07T03:04:29;100177.31;;;2.03;91.49
75794;BME280;64418;47.536;19.074;2022-12-07T03:07:25;100162.63;;;2.07;91.25
75794;BME280;64418;47.536;19.074;2022-12-07T03:10:20;100166.28;;;2.06;91.33
75794;BME280;64418;47.536;19.074;2022-12-07T03:13:11;100161.47;;;2.10;91.26
75794;BME280;64418;47.536;19.074;2022-12-07T03:16:05;100167.13;;;2.07;91.32
75794;BME280;64418;47.536;19.074;2022-12-07T03:18:56;100158.28;;;2.06;91.29
75794;BME280;64418;47.536;19.074;2022-12-07T03:21:50;100161.16;;;2.13;91.30
75794;BME280;64418;47.536;19.074;2022-12-07T03:24:43;100157.16;;;2.17;91.24
75794;BME280;64418;47.536;19.074;2022-12-07T03:27:32;100152.00;;;2.15;91.29
75794;BME280;64418;47.536;19.074;2022-12-07T03:30:21;100157.50;;;2.14;91.37
75794;BME280;64418;47.536;19.074;2022-12-07T03:33:14;100158.47;;;2.13;91.44
75794;BME280;64418;47.536;19.074;2022-12-07T03:36:05;100155.47;;;2.16;91.43
75794;BME280;64418;47.536;19.074;2022-12-07T03:38:58;100166.16;;;2.16;91.67
75794;BME280;64418;47.536;19.074;2022-12-07T03:41:48;100178.53;;;2.17;91.68
75794;BME280;64418;47.536;19.074;2022-12-07T03:44:35;100170.38;;;2.18;91.67
75794;BME280;64418;47.536;19.074;2022-12-07T03:47:27;100176.25;;;2.22;91.61
75794;BME280;64418;47.536;19.074;2022-12-07T03:50:23;100182.63;;;2.29;91.60
75794;BME280;64418;47.536;19.074;2022-12-07T03:53:16;100199.72;;;2.36;91.61
75794;BME280;64418;47.536;19.074;2022-12-07T03:56:06;100191.53;;;2.37;91.58
75794;BME280;64418;47.536;19.074;2022-12-07T03:58:53;100185.87;;;2.40;91.49
75794;BME280;64418;47.536;19.074;2022-12-07T04:01:41;100185.34;;;2.37;91.51
75794;BME280;64418;47.536;19.074;2022-12-07T04:04:28;100191.03;;;2.42;91.49
75794;BME280;64418;47.536;19.074;2022-12-07T04:07:14;100184.19;;;2.39;91.79
75794;BME280;64418;47.536;19.074;2022-12-07T04:10:00;100183.88;;;2.42;92.10
75794;BME280;64418;47.536;19.074;2022-12-07T04:12:47;100189.06;;;2.44;92.36
75794;BME280;64418;47.536;19.074;2022-12-07T04:15:33;100193.09;;;2.48;92.49
75794;BME280;64418;47.536;19.074;2022-12-07T04:18:19;100185.75;;;2.50;92.63
75794;BME280;64418;47.536;19.074;2022-12-07T04:21:05;100174.34;;;2.40;92.81
75794;BME280;64418;47.536;19.074;2022-12-07T04:23:51;100191.47;;;2.55;92.99
75794;BME280;64418;47.536;19.074;2022-12-07T04:26:37;100198.16;;;2.59;93.28
75794;BME280;64418;47.536;19.074;2022-12-07T04:29:24;100190.66;;;2.63;93.49
75794;BME280;64418;47.536;19.074;2022-12-07T04:32:10;100196.53;;;2.66;93.62
75794;BME280;64418;47.536;19.074;2022-12-07T04:34:56;100194.50;;;2.68;93.81
75794;BME280;64418;47.536;19.074;2022-12-07T04:37:42;100188.53;;;2.74;93.87
75794;BME280;64418;47.536;19.074;2022-12-07T04:40:28;100189.91;;;2.78;93.88
75794;BME280;64418;47.536;19.074;2022-12-07T04:43:14;100187.03;;;2.80;93.67
75794;BME280;64418;47.536;19.074;2022-12-07T04:46:01;100187.56;;;2.83;93.64
75794;BME280;64418;47.536;19.074;2022-12-07T04:48:47;100188.25;;;2.85;93.65
75794;BME280;64418;47.536;19.074;2022-12-07T04:51:33;100201.47;;;2.87;93.79
75794;BME280;64418;47.536;19.074;2022-12-07T04:54:19;100196.78;;;2.89;93.89
75794;BME280;64418;47.536;19.074;2022-12-07T04:57:04;100191.94;;;2.92;93.71
75794;BME280;64418;47.536;19.074;2022-12-07T04:59:50;100195.31;;;2.95;93.64
75794;BME280;64418;47.536;19.074;2022-12-07T05:02:38;100189.63;;;2.98;93.44
75794;BME280;64418;47.536;19.074;2022-12-07T05:05:24;100190.81;;;3.03;92.90
75794;BME280;64418;47.536;19.074;2022-12-07T05:08:10;100191.31;;;3.07;92.87
75794;BME280;64418;47.536;19.074;2022-12-07T05:10:56;100181.31;;;3.09;92.87
75794;BME280;64418;47.536;19.074;2022-12-07T05:13:42;100173.94;;;3.11;93.18
75794;BME280;64418;47.536;19.074;2022-12-07T05:16:28;100173.31;;;3.17;93.24
75794;BME280;64418;47.536;19.074;2022-12-07T05:19:16;100168.75;;;3.17;93.33
75794;BME280;64418;47.536;19.074;2022-12-07T05:22:02;100166.25;;;3.16;93.75
75794;BME280;64418;47.536;19.074;2022-12-07T05:24:48;100152.87;;;3.16;93.73
75794;BME280;64418;47.536;19.074;2022-12-07T05:27:33;100159.91;;;3.25;93.37
75794;BME280;64418;47.536;19.074;2022-12-07T05:30:20;100162.09;;;3.29;93.04
75794;BME280;64418;47.536;19.074;2022-12-07T05:33:06;100157.59;;;3.30;93.09
75794;BME280;64418;47.536;19.074;2022-12-07T05:35:54;100158.94;;;3.34;92.77
75794;BME280;64418;47.536;19.074;2022-12-07T05:38:40;100163.94;;;3.37;92.64
75794;BME280;64418;47.536;19.074;2022-12-07T05:41:26;100156.09;;;3.35;92.30
75794;BME280;64418;47.536;19.074;2022-12-07T05:44:13;100158.25;;;3.40;92.28
75794;BME280;64418;47.536;19.074;2022-12-07T05:46:59;100160.28;;;3.38;92.06
75794;BME280;64418;47.536;19.074;2022-12-07T05:49:44;100164.62;;;3.39;92.29
75794;BME280;64418;47.536;19.074;2022-12-07T05:52:32;100163.94;;;3.37;92.30
75794;BME280;64418;47.536;19.074;2022-12-07T05:55:18;100165.78;;;3.36;92.19
75794;BME280;64418;47.536;19.074;2022-12-07T05:58:05;100161.59;;;3.34;92.32
75794;BME280;64418;47.536;19.074;2022-12-07T06:00:50;100168.47;;;3.36;92.40
75794;BME280;64418;47.536;19.074;2022-12-07T06:03:37;100167.66;;;3.36;92.53
75794;BME280;64418;47.536;19.074;2022-12-07T06:06:23;100172.66;;;3.39;92.40
75794;BME280;64418;47.536;19.074;2022-12-07T06:09:10;100176.16;;;3.31;92.59
75794;BME280;64418;47.536;19.074;2022-12-07T06:11:57;100178.03;;;3.39;92.32
75794;BME280;64418;47.536;19.074;2022-12-07T06:14:43;100173.16;;;3.43;92.40
75794;BME280;64418;47.536;19.074;2022-12-07T06:17:30;100174.66;;;3.37;92.85
75794;BME280;64418;47.536;19.074;2022-12-07T06:20:15;100176.34;;;3.38;92.56
75794;BME280;64418;47.536;19.074;2022-12-07T06:23:02;100179.00;;;3.38;92.40
75794;BME280;64418;47.536;19.074;2022-12-07T06:25:49;100179.03;;;3.46;92.00
75794;BME280;64418;47.536;19.074;2022-12-07T06:28:35;100174.34;;;3.48;91.56
75794;BME280;64418;47.536;19.074;2022-12-07T06:31:21;100170.50;;;3.51;91.52
75794;BME280;64418;47.536;19.074;2022-12-07T06:34:11;100180.38;;;3.50;91.99
75794;BME280;64418;47.536;19.074;2022-12-07T06:36:57;100173.00;;;3.52;91.72
75794;BME280;64418;47.536;19.074;2022-12-07T06:39:43;100181.72;;;3.54;91.55
75794;BME280;64418;47.536;19.074;2022-12-07T06:42:30;100179.19;;;3.53;91.58
75794;BME280;64418;47.536;19.074;2022-12-07T06:45:16;100185.38;;;4.02;92.78
75794;BME280;64418;47.536;19.074;2022-12-07T06:48:02;100190.09;;;4.08;92.17
75794;BME280;64418;47.536;19.074;2022-12-07T06:50:53;100182.69;;;4.10;88.36
75794;BME280;64418;47.536;19.074;2022-12-07T06:53:39;100189.25;;;3.99;89.45
75794;BME280;64418;47.536;19.074;2022-12-07T06:56:25;100189.59;;;3.96;90.05
75794;BME280;64418;47.536;19.074;2022-12-07T06:59:13;100191.44;;;3.96;90.36
75794;BME280;64418;47.536;19.074;2022-12-07T07:01:59;100195.28;;;3.85;90.86
75794;BME280;64418;47.536;19.074;2022-12-07T07:04:45;100201.50;;;3.77;91.08
75794;BME280;64418;47.536;19.074;2022-12-07T07:07:31;100191.44;;;3.71;91.24
75794;BME280;64418;47.536;19.074;2022-12-07T07:10:17;100196.78;;;3.63;91.65
75794;BME280;64418;47.536;19.074;2022-12-07T07:13:03;100184.03;;;3.49;92.14
75794;BME280;64418;47.536;19.074;2022-12-07T07:15:51;100200.78;;;3.43;92.34
75794;BME280;64418;47.536;19.074;2022-12-07T07:18:37;100197.41;;;3.41;92.39
75794;BME280;64418;47.536;19.074;2022-12-07T07:21:23;100198.09;;;3.35;92.47
75794;BME280;64418;47.536;19.074;2022-12-07T07:24:09;100201.75;;;3.34;92.65
75794;BME280;64418;47.536;19.074;2022-12-07T07:26:55;100194.41;;;3.36;92.90
75794;BME280;64418;47.536;19.074;2022-12-07T07:29:41;100203.44;;;3.35;92.88
75794;BME280;64418;47.536;19.074;2022-12-07T07:32:31;100202.28;;;3.37;92.92
75794;BME280;64418;47.536;19.074;2022-12-07T07:35:18;100193.06;;;3.32;92.97
75794;BME280;64418;47.536;19.074;2022-12-07T07:38:04;100206.09;;;3.27;93.39
75794;BME280;64418;47.536;19.074;2022-12-07T07:40:50;100203.09;;;3.38;93.20
75794;BME280;64418;47.536;19.074;2022-12-07T07:43:35;100202.13;;;3.47;93.19
75794;BME280;64418;47.536;19.074;2022-12-07T07:46:21;100192.75;;;3.59;92.59
75794;BME280;64418;47.536;19.074;2022-12-07T07:49:10;100191.44;;;3.71;92.48
75794;BME280;64418;47.536;19.074;2022-12-07T07:51:56;100195.44;;;3.75;92.65
75794;BME280;64418;47.536;19.074;2022-12-07T07:54:42;100187.41;;;3.83;92.52
75794;BME280;64418;47.536;19.074;2022-12-07T07:57:28;100193.94;;;3.97;91.46
75794;BME280;64418;47.536;19.074;2022-12-07T08:00:16;100205.47;;;4.14;89.83
75794;BME280;64418;47.536;19.074;2022-12-07T08:03:03;100198.59;;;4.27;88.64
75794;BME280;64418;47.536;19.074;2022-12-07T08:05:50;100210.63;;;4.40;88.62
75794;BME280;64418;47.536;19.074;2022-12-07T08:08:36;100215.12;;;4.47;89.02
75794;BME280;64418;47.536;19.074;2022-12-07T08:11:22;100212.78;;;4.52;88.80
75794;BME280;64418;47.536;19.074;2022-12-07T08:14:09;100208.38;;;4.67;88.38
75794;BME280;64418;47.536;19.074;2022-12-07T08:16:56;100207.22;;;4.54;88.39
75794;BME280;64418;47.536;19.074;2022-12-07T08:19:42;100209.63;;;4.49;88.57
75794;BME280;64418;47.536;19.074;2022-12-07T08:22:30;100216.47;;;4.59;88.38
75794;BME280;64418;47.536;19.074;2022-12-07T08:25:16;100216.91;;;4.79;87.75
75794;BME280;64418;47.536;19.074;2022-12-07T08:28:03;100222.53;;;5.31;86.26
75794;BME280;64418;47.536;19.074;2022-12-07T08:30:48;100224.56;;;5.52;84.68
75794;BME280;64418;47.536;19.074;2022-12-07T08:33:35;100227.63;;;5.49;84.52
75794;BME280;64418;47.536;19.074;2022-12-07T08:36:21;100227.37;;;5.89;82.97
75794;BME280;64418;47.536;19.074;2022-12-07T08:39:08;100237.41;;;5.95;82.70
75794;BME280;64418;47.536;19.074;2022-12-07T08:41:54;100222.72;;;6.20;81.58
75794;BME280;64418;47.536;19.074;2022-12-07T08:44:40;100231.34;;;6.53;80.27
75794;BME280;64418;47.536;19.074;2022-12-07T08:47:26;100226.59;;;6.99;78.61
75794;BME280;64418;47.536;19.074;2022-12-07T08:50:12;100230.94;;;7.15;77.61
75794;BME280;64418;47.536;19.074;2022-12-07T08:53:00;100218.38;;;7.22;75.82
75794;BME280;64418;47.536;19.074;2022-12-07T08:55:48;100237.88;;;7.39;74.50
75794;BME280;64418;47.536;19.074;2022-12-07T08:58:35;100232.53;;;7.81;73.40
75794;BME280;64418;47.536;19.074;2022-12-07T09:01:22;100225.72;;;8.06;72.71
75794;BME280;64418;47.536;19.074;2022-12-07T09:04:08;100231.22;;;8.19;71.87
75794;BME280;64418;47.536;19.074;2022-12-07T09:06:55;100232.72;;;8.01;70.97
75794;BME280;64418;47.536;19.074;2022-12-07T09:09:41;100236.19;;;7.95;70.62
75794;BME280;64418;47.536;19.074;2022-12-07T09:12:29;100230.94;;;7.87;69.13
75794;BME280;64418;47.536;19.074;2022-12-07T09:15:15;100230.69;;;7.82;68.57
75794;BME280;64418;47.536;19.074;2022-12-07T09:18:01;100224.63;;;7.80;68.66
75794;BME280;64418;47.536;19.074;2022-12-07T09:20:47;100221.66;;;7.53;69.04
75794;BME280;64418;47.536;19.074;2022-12-07T09:23:33;100217.69;;;8.34;68.29
75794;BME280;64418;47.536;19.074;2022-12-07T09:26:19;100213.31;;;11.07;59.22
75794;BME280;64418;47.536;19.074;2022-12-07T09:29:07;100206.63;;;11.16;58.12
75794;BME280;64418;47.536;19.074;2022-12-07T09:31:53;100211.75;;;10.80;58.86
75794;BME280;64418;47.536;19.074;2022-12-07T09:34:39;100204.72;;;10.39;58.69
75794;BME280;64418;47.536;19.074;2022-12-07T09:37:25;100209.28;;;10.58;57.45
75794;BME280;64418;47.536;19.074;2022-12-07T09:40:13;100213.91;;;12.04;53.78
75794;BME280;64418;47.536;19.074;2022-12-07T09:43:00;100208.81;;;14.96;48.23
75794;BME280;64418;47.536;19.074;2022-12-07T09:45:51;100212.22;;;17.11;42.33
75794;BME280;64418;47.536;19.074;2022-12-07T09:48:38;100207.09;;;21.21;33.55
75794;BME280;64418;47.536;19.074;2022-12-07T09:51:24;100205.00;;;23.31;30.43
75794;BME280;64418;47.536;19.074;2022-12-07T09:54:13;100198.94;;;20.45;34.60
75794;BME280;64418;47.536;19.074;2022-12-07T09:56:59;100194.78;;;15.96;39.60
75794;BME280;64418;47.536;19.074;2022-12-07T09:59:45;100201.12;;;14.70;43.62
75794;BME280;64418;47.536;19.074;2022-12-07T10:02:38;100193.72;;;15.68;41.46
75794;BME280;64418;47.536;19.074;2022-12-07T10:05:27;100195.44;;;18.26;37.70
75794;BME280;64418;47.536;19.074;2022-12-07T10:08:14;100186.94;;;23.81;27.63
75794;BME280;64418;47.536;19.074;2022-12-07T10:11:02;100194.06;;;21.96;29.70
75794;BME280;64418;47.536;19.074;2022-12-07T10:13:51;100175.09;;;18.96;33.14
75794;BME280;64418;47.536;19.074;2022-12-07T10:16:40;100191.59;;;19.48;33.44
75794;BME280;64418;47.536;19.074;2022-12-07T10:19:30;100184.66;;;18.47;36.31
75794;BME280;64418;47.536;19.074;2022-12-07T10:22:17;100188.16;;;20.84;32.59
75794;BME280;64418;47.536;19.074;2022-12-07T10:25:08;100186.16;;;18.27;35.49
75794;BME280;64418;47.536;19.074;2022-12-07T10:28:02;100185.44;;;20.49;31.31
75794;BME280;64418;47.536;19.074;2022-12-07T10:30:51;100183.63;;;19.57;32.05
75794;BME280;64418;47.536;19.074;2022-12-07T10:33:40;100180.41;;;18.61;33.83
75794;BME280;64418;47.536;19.074;2022-12-07T10:36:36;100178.88;;;15.64;39.10
75794;BME280;64418;47.536;19.074;2022-12-07T10:39:24;100172.44;;;15.30;39.92
75794;BME280;64418;47.536;19.074;2022-12-07T10:42:17;100162.41;;;16.04;38.84
75794;BME280;64418;47.536;19.074;2022-12-07T10:45:09;100157.75;;;16.55;38.04
75794;BME280;64418;47.536;19.074;2022-12-07T10:48:01;100164.00;;;14.92;40.99
75794;BME280;64418;47.536;19.074;2022-12-07T10:50:59;100153.81;;;14.18;43.10
75794;BME280;64418;47.536;19.074;2022-12-07T10:54:00;100157.00;;;14.03;42.33
75794;BME280;64418;47.536;19.074;2022-12-07T10:57:03;100162.44;;;15.76;38.69
75794;BME280;64418;47.536;19.074;2022-12-07T11:00:00;100155.22;;;13.56;42.70
75794;BME280;64418;47.536;19.074;2022-12-07T11:03:02;100159.31;;;13.88;42.74
75794;BME280;64418;47.536;19.074;2022-12-07T11:05:54;100150.88;;;12.45;45.46
75794;BME280;64418;47.536;19.074;2022-12-07T11:08:57;100146.22;;;12.28;46.71
75794;BME280;64418;47.536;19.074;2022-12-07T11:11:51;100142.91;;;11.70;48.27
75794;BME280;64418;47.536;19.074;2022-12-07T11:14:45;100138.91;;;11.47;48.69
75794;BME280;64418;47.536;19.074;2022-12-07T11:17:42;100142.53;;;11.59;48.93
75794;BME280;64418;47.536;19.074;2022-12-07T11:20:41;100144.12;;;11.04;50.38
75794;BME280;64418;47.536;19.074;2022-12-07T11:23:40;100138.50;;;10.22;52.59
75794;BME280;64418;47.536;19.074;2022-12-07T11:26:45;100138.50;;;9.96;53.38
75794;BME280;64418;47.536;19.074;2022-12-07T11:29:51;100144.22;;;9.27;55.01
75794;BME280;64418;47.536;19.074;2022-12-07T11:32:59;100139.28;;;9.44;55.16
75794;BME280;64418;47.536;19.074;2022-12-07T11:36:02;100133.88;;;9.50;54.72
75794;BME280;64418;47.536;19.074;2022-12-07T11:38:53;100137.19;;;9.39;55.20
75794;BME280;64418;47.536;19.074;2022-12-07T11:41:42;100134.94;;;9.76;54.64
75794;BME280;64418;47.536;19.074;2022-12-07T11:44:34;100133.22;;;9.42;54.91
75794;BME280;64418;47.536;19.074;2022-12-07T11:47:27;100140.06;;;9.38;54.76
75794;BME280;64418;47.536;19.074;2022-12-07T11:50:26;100137.19;;;9.39;54.95
75794;BME280;64418;47.536;19.074;2022-12-07T11:53:18;100137.16;;;9.33;55.78
75794;BME280;64418;47.536;19.074;2022-12-07T11:56:09;100143.47;;;8.92;57.18
75794;BME280;64418;47.536;19.074;2022-12-07T11:59:02;100140.56;;;8.87;57.45
75794;BME280;64418;47.536;19.074;2022-12-07T12:01:53;100142.47;;;9.06;56.78
75794;BME280;64418;47.536;19.074;2022-12-07T12:04:50;100124.09;;;8.76;56.40
75794;BME280;64418;47.536;19.074;2022-12-07T12:07:39;100136.19;;;8.93;56.08
75794;BME280;64418;47.536;19.074;2022-12-07T12:10:30;100127.12;;;9.13;55.80
75794;BME280;64418;47.536;19.074;2022-12-07T12:14:03;100118.63;;;9.16;54.56
75794;BME280;64418;47.536;19.074;2022-12-07T12:17:10;100108.72;;;9.83;52.85
75794;BME280;64418;47.536;19.074;2022-12-07T12:20:04;100108.81;;;14.27;43.13
75794;BME280;64418;47.536;19.074;2022-12-07T12:22:55;100112.41;;;18.73;33.82
75794;BME280;64418;47.536;19.074;2022-12-07T12:25:46;100108.31;;;15.16;39.44
75794;BME280;64418;47.536;19.074;2022-12-07T12:28:39;100100.53;;;16.15;37.96
75794;BME280;64418;47.536;19.074;2022-12-07T12:31:35;100100.66;;;17.23;35.48
75794;BME280;64418;47.536;19.074;2022-12-07T12:34:37;100095.72;;;20.48;30.24
75794;BME280;64418;47.536;19.074;2022-12-07T12:37:40;100097.94;;;22.13;27.64
75794;BME280;64418;47.536;19.074;2022-12-07T12:40:51;100106.16;;;21.40;29.08
75794;BME280;64418;47.536;19.074;2022-12-07T12:46:49;100097.75;;;21.06;28.34
75794;BME280;64418;47.536;19.074;2022-12-07T12:49:38;100092.47;;;21.64;27.54
75794;BME280;64418;47.536;19.074;2022-12-07T12:52:58;100086.66;;;18.00;32.06
75794;BME280;64418;47.536;19.074;2022-12-07T12:56:13;100084.31;;;16.08;35.71
75794;BME280;64418;47.536;19.074;2022-12-07T12:59:33;100086.06;;;12.97;42.83
75794;BME280;64418;47.536;19.074;2022-12-07T13:02:23;100089.78;;;11.24;47.66
75794;BME280;64418;47.536;19.074;2022-12-07T13:05:20;100090.66;;;10.74;49.19
75794;BME280;64418;47.536;19.074;2022-12-07T13:08:17;100090.22;;;10.19;50.86
75794;BME280;64418;47.536;19.074;2022-12-07T13:11:25;100089.34;;;9.59;52.70
75794;BME280;64418;47.536;19.074;2022-12-07T13:14:40;100095.59;;;9.40;52.98
75794;BME280;64418;47.536;19.074;2022-12-07T13:17:59;100091.84;;;9.41;52.45
75794;BME280;64418;47.536;19.074;2022-12-07T13:20:51;100093.81;;;9.00;53.37
75794;BME280;64418;47.536;19.074;2022-12-07T13:23:38;100096.25;;;8.82;54.14
75794;BME280;64418;47.536;19.074;2022-12-07T13:26:39;100099.50;;;8.64;54.27
75794;BME280;64418;47.536;19.074;2022-12-07T13:29:36;100094.13;;;8.02;55.55
75794;BME280;64418;47.536;19.074;2022-12-07T13:32:24;100104.59;;;7.62;56.96
75794;BME280;64418;47.536;19.074;2022-12-07T13:35:35;100103.19;;;7.66;57.54
75794;BME280;64418;47.536;19.074;2022-12-07T13:38:27;100097.81;;;7.24;59.25
75794;BME280;64418;47.536;19.074;2022-12-07T13:41:15;100101.25;;;7.18;59.88
75794;BME280;64418;47.536;19.074;2022-12-07T13:44:05;100102.53;;;7.22;60.52
75794;BME280;64418;47.536;19.074;2022-12-07T13:47:00;100106.47;;;6.84;61.23
75794;BME280;64418;47.536;19.074;2022-12-07T13:49:51;100112.28;;;6.51;62.26
75794;BME280;64418;47.536;19.074;2022-12-07T13:52:43;100118.87;;;6.34;63.82
75794;BME280;64418;47.536;19.074;2022-12-07T13:55:29;100115.53;;;6.32;64.36
75794;BME280;64418;47.536;19.074;2022-12-07T13:58:16;100117.56;;;6.30;64.30
75794;BME280;64418;47.536;19.074;2022-12-07T14:01:05;100116.81;;;6.36;64.43
75794;BME280;64418;47.536;19.074;2022-12-07T14:03:51;100123.88;;;6.37;65.19
75794;BME280;64418;47.536;19.074;2022-12-07T14:06:48;100117.91;;;6.27;65.03
75794;BME280;64418;47.536;19.074;2022-12-07T14:09:35;100117.75;;;6.14;66.30
75794;BME280;64418;47.536;19.074;2022-12-07T14:12:22;100110.12;;;6.03;66.17
75794;BME280;64418;47.536;19.074;2022-12-07T14:15:19;100115.41;;;5.96;66.71
75794;BME280;64418;47.536;19.074;2022-12-07T14:18:25;100115.66;;;5.87;67.91
75794;BME280;64418;47.536;19.074;2022-12-07T14:21:15;100116.69;;;5.63;67.80
75794;BME280;64418;47.536;19.074;2022-12-07T14:24:19;100118.37;;;5.41;68.81
75794;BME280;64418;47.536;19.074;2022-12-07T14:27:16;100114.16;;;5.24;69.96
75794;BME280;64418;47.536;19.074;2022-12-07T14:30:04;100123.16;;;5.08;70.15
75794;BME280;64418;47.536;19.074;2022-12-07T14:32:53;100118.66;;;5.01;71.41
75794;BME280;64418;47.536;19.074;2022-12-07T14:35:39;100120.38;;;4.94;71.51
75794;BME280;64418;47.536;19.074;2022-12-07T14:38:25;100122.78;;;4.80;72.25
75794;BME280;64418;47.536;19.074;2022-12-07T14:41:15;100132.19;;;4.76;72.87
75794;BME280;64418;47.536;19.074;2022-12-07T14:44:08;100127.22;;;4.65;73.47
75794;BME280;64418;47.536;19.074;2022-12-07T14:46:54;100130.97;;;4.56;73.32
75794;BME280;64418;47.536;19.074;2022-12-07T14:49:40;100133.66;;;4.56;73.11